Airfield :
LOGIN :

Register | Disclaimer

   EN    FR    IT 

 










Legend :    VFR   Marginal VFR   IFR   Intensive IFR   Very Intensive IFR
Visi :
Ceiling :
>= 8 km
>= 3000ft
5 to 8 km
1000 to 3000 ft
1500m to 5 km
500 to 1000 ft
800 to 1500m
200 to 500 ft
< 800m
< 200 ft
Symbols :   Thunderstorms  Fog  Heavy snow  Heavy precipitations  Wind > 20 kt
SIGMETs :     Misc.  Thunderstorms  Icing  Turbulence  Mountain Waves  Volcanic Ashes






- Airport Elevation : 75 ft
- IATA code : MRH


EGYM - RAF Marham

CURRENT METAR :
  • 211020Z AUTO 30009KT 9999 FEW032/// 19/10 Q1009

EXPIRED METARs :
  • 210950Z AUTO 30009KT 9999 SCT022/// BKN044/// 19/12 Q1009
  • 210920Z AUTO 29012KT 9999 BKN020/// OVC042/// 18/12 Q1009
  • 210850Z AUTO 30011KT 9999 SCT018/// OVC042/// 18/13 Q1009
  • 210820Z AUTO 30011KT 9999 SCT018/// OVC042/// 18/13 Q1009
  • 210750Z AUTO 30011KT 9999 OVC017/// 18/13 Q1008
  • 210720Z AUTO 31012KT 9999 BKN016/// BKN037/// 18/14 Q1008
  • 210650Z AUTO 30011KT 9999 FEW015/// BKN036/// BKN087/// 19/14 Q1008
  • 210620Z AUTO 31009KT 9999 OVC036/// 18/14 Q1008

Expired Forecast.



MET'MAP, your aeronautical weather chart ! - Copyright ORBIFLY December 2007 - Disclaimer

ORBIFLY MET'MAP TEAM :

Programming & Development : Alexandra Zaïnal
Original concept : Baudouin d'Aumeries
Technical & hardware support : Manuel Goepfert
Assistance : Marc-Olivier Méhu




SOURCES & CREDITS :

   NOAA